O'Brien, TX (79539)

10:41 AM CDT on June 25, 2018 (GMT -0500)
Camp Munday | | Change Station

Elev 1482 ft 33.45 °N, 99.64 °W | Updated 13 seconds ago

Partly Cloudy
Partly Cloudy
84.6 °F
Feels Like 85 °F
N
12
Wind Variable Wind from ESE
Gusts 16.0 mph

Today
High -- | Low -- °F
--% Chance of Precip.
Yesterday
High -- | Low -- °F
Precip. -- in
Pressure 29.84 in
Visibility 10.0 miles
Clouds Clear
Heat Index 85 °F
Dew Point 63 °F
Humidity 48%
Rainfall 0.00 in
Snow Depth Not available.
6:31 AM 8:52 PM
Waxing Gibbous, 94% visible
METAR KDYS 251456Z 13018G24KT 10SM CLR 28/18 A3000 RMK AO2A PK WND 14027/42 SLP105 T02810179 50000 $
Pressure 29.84 in
Visibility 10.0 miles
Clouds Clear
Heat Index 85 °F
Dew Point 63 °F
Humidity 48%
Rainfall 0.00 in
Snow Depth Not available.
6:31 AM 8:52 PM
Waxing Gibbous, 94% visible
METAR KDYS 251456Z 13018G24KT 10SM CLR 28/18 A3000 RMK AO2A PK WND 14027/42 SLP105 T02810179 50000 $

Get Severe Weather Alerts

Thanks for signing up!

Be on the lookout for a verification email in your inbox.

You'll start receiving the daily forecast at 6 AM.

×

10-Day Weather Forecast

Almanac

Astronomy

Jun. 25, 2018 Rise Set
Actual Time
Civil Twilight
Nautical Twilight
Astronomical Twilight
Moon
Length of Visible Light
Length of Day
Tomorrow will be .
, % of the Moon is Illuminated

Today's Extremes

State Highs State Lows

Community

WunderPhotos

Category 6

Welcome to Category 6. This is the collective home for Weather Underground's featured writeups by Dr. Jeff Masters (right), Bob Henson (left), Chris Burt, and other regular contributors.

Nearby

Air Quality

  Air Quality AQ Index Pollutant
Not available.

Snow Depth

Station Depth Elevation

Earthquake Activity

City Distance Mag. Time & Date
Minimum magnitude displayed is 2.5.

Coastal Water Temperatures

Place Temperature

Stations

Nearby Weather Stations

Station Location Temp. Windchill Dew Point Humidity Wind Precip. Elev Updated Type
                   

Watches & Warnings

There are currently no watches in effect.